createdAt,value
2023-04-08T00:00:27.825Z,99333.28
2023-04-08T00:02:54.588Z,99342.06
2023-04-08T00:05:21.321Z,99344.09
2023-04-08T00:07:48.002Z,99343.09
2023-04-08T00:10:14.700Z,99347.00
2023-04-08T00:12:41.452Z,99349.66
2023-04-08T00:15:08.337Z,99351.25
2023-04-08T00:17:35.002Z,99344.28
2023-04-08T00:20:01.939Z,99347.81
2023-04-08T00:22:28.603Z,99347.09
2023-04-08T00:24:55.377Z,99348.81
2023-04-08T00:27:22.038Z,99348.72
2023-04-08T00:29:48.779Z,99348.38
2023-04-08T00:32:15.560Z,99355.69
2023-04-08T00:34:43.455Z,99352.63
2023-04-08T00:37:10.443Z,99354.84
2023-04-08T00:39:37.982Z,99356.50
2023-04-08T00:42:04.653Z,99353.94
2023-04-08T00:44:31.679Z,99360.53
2023-04-08T00:46:58.473Z,99366.97
2023-04-08T00:49:26.625Z,99365.72
2023-04-08T00:51:54.736Z,99362.63
2023-04-08T00:54:21.449Z,99355.47
2023-04-08T00:56:49.592Z,99362.22
2023-04-08T00:59:17.947Z,99363.63
2023-04-08T01:01:47.843Z,99365.97
2023-04-08T01:04:26.210Z,99378.94
2023-04-08T01:07:06.110Z,99373.16
2023-04-08T01:09:34.155Z,99374.44
2023-04-08T01:12:04.391Z,99372.78
2023-04-08T01:14:32.072Z,99371.91
2023-04-08T01:16:59.995Z,99376.28
2023-04-08T01:19:32.137Z,99376.22
2023-04-08T01:22:08.517Z,99374.50
2023-04-08T01:24:37.119Z,99383.19
2023-04-08T01:27:04.176Z,99390.88
2023-04-08T01:29:33.444Z,99382.53
2023-04-08T01:32:02.136Z,99390.94
2023-04-08T01:34:29.961Z,99382.28
2023-04-08T01:36:58.548Z,99383.38
2023-04-08T01:39:26.155Z,99382.81
2023-04-08T01:41:54.161Z,99377.84
2023-04-08T01:44:21.723Z,99376.56
2023-04-08T01:46:49.262Z,99384.59
2023-04-08T01:49:17.429Z,99379.22
2023-04-08T01:51:44.978Z,99380.78
2023-04-08T01:54:11.676Z,99373.38
2023-04-08T01:56:41.716Z,99378.97
2023-04-08T01:59:11.227Z,99377.97
2023-04-08T02:01:38.266Z,99378.38
2023-04-08T02:04:05.212Z,99385.16
2023-04-08T02:06:32.742Z,99385.97
2023-04-08T02:09:00.097Z,99387.34
2023-04-08T02:11:27.098Z,99393.66
2023-04-08T02:13:54.273Z,99392.66
2023-04-08T02:16:45.688Z,99394.03
2023-04-08T02:19:16.720Z,99391.72
2023-04-08T02:21:47.486Z,99402.22
2023-04-08T02:24:14.978Z,99401.63
2023-04-08T02:26:43.437Z,99389.56
2023-04-08T02:29:13.570Z,99394.75
2023-04-08T02:31:43.049Z,99393.03
2023-04-08T02:34:13.725Z,99399.78
2023-04-08T02:36:41.425Z,99403.06
2023-04-08T02:39:08.131Z,99400.72
2023-04-08T02:41:34.830Z,99399.28
2023-04-08T02:44:01.518Z,99392.25
2023-04-08T02:46:30.346Z,99395.16
2023-04-08T02:48:57.154Z,99399.44
2023-04-08T02:51:23.859Z,99395.69
2023-04-08T02:53:50.854Z,99395.31
2023-04-08T02:56:17.456Z,99399.41
2023-04-08T02:58:44.084Z,99397.03
2023-04-08T03:01:10.808Z,99404.03
2023-04-08T03:03:37.629Z,99406.44
2023-04-08T03:06:04.374Z,99404.75
2023-04-08T03:08:31.056Z,99402.34
2023-04-08T03:10:57.649Z,99402.47
2023-04-08T03:13:24.313Z,99403.22
2023-04-08T03:15:51.025Z,99408.47
2023-04-08T03:18:17.962Z,99407.09
2023-04-08T03:20:44.661Z,99407.16
2023-04-08T03:23:11.368Z,99409.00
2023-04-08T03:25:38.147Z,99407.72
2023-04-08T03:28:04.869Z,99404.53
2023-04-08T03:30:31.910Z,99413.75
2023-04-08T03:32:58.638Z,99411.09
2023-04-08T03:35:25.647Z,99413.41
2023-04-08T03:37:52.444Z,99413.34
2023-04-08T03:40:19.239Z,99409.56
2023-04-08T03:42:46.320Z,99416.00
2023-04-08T03:45:13.216Z,99422.69
2023-04-08T03:47:41.130Z,99420.31
2023-04-08T03:50:08.310Z,99435.38
2023-04-08T03:52:34.925Z,99425.59
2023-04-08T03:55:04.309Z,99435.38
2023-04-08T03:57:30.934Z,99434.47
2023-04-08T03:59:57.997Z,99439.75
2023-04-08T04:02:24.892Z,99443.44
2023-04-08T04:04:51.651Z,99449.09
2023-04-08T04:07:18.347Z,99445.47
2023-04-08T04:09:45.030Z,99451.78
2023-04-08T04:12:11.817Z,99455.72
2023-04-08T04:14:38.438Z,99458.03
2023-04-08T04:17:05.129Z,99463.34
2023-04-08T04:19:32.158Z,99453.28
2023-04-08T04:21:58.829Z,99462.97
2023-04-08T04:24:25.645Z,99455.91
2023-04-08T04:26:52.277Z,99460.19
2023-04-08T04:29:18.991Z,99458.06
2023-04-08T04:31:46.299Z,99468.59
2023-04-08T04:34:13.174Z,99464.97
2023-04-08T04:36:39.846Z,99471.41
2023-04-08T04:39:06.520Z,99470.41
2023-04-08T04:41:33.181Z,99469.44
2023-04-08T04:43:59.891Z,99474.88
2023-04-08T04:46:26.659Z,99473.22
2023-04-08T04:48:53.315Z,99472.22
2023-04-08T04:51:19.987Z,99472.22
2023-04-08T04:53:46.715Z,99474.03
2023-04-08T04:56:13.392Z,99482.31
2023-04-08T04:58:40.144Z,99483.13
2023-04-08T05:01:06.893Z,99480.81
2023-04-08T05:03:33.717Z,99483.63
2023-04-08T05:06:00.732Z,99500.13
2023-04-08T05:08:28.189Z,99496.00
2023-04-08T05:10:56.149Z,99497.31
2023-04-08T05:13:23.163Z,99501.09
2023-04-08T05:15:51.028Z,99505.06
2023-04-08T05:18:17.798Z,99506.41
2023-04-08T05:20:44.473Z,99506.72
2023-04-08T05:23:11.103Z,99513.16
2023-04-08T05:25:37.707Z,99513.16
2023-04-08T05:28:04.674Z,99512.50
2023-04-08T05:30:31.526Z,99518.44
2023-04-08T05:33:00.384Z,99514.94
2023-04-08T05:35:28.050Z,99522.22
2023-04-08T05:37:54.761Z,99523.53
2023-04-08T05:40:21.504Z,99525.34
2023-04-08T05:42:49.376Z,99529.97
2023-04-08T05:45:16.369Z,99529.31
2023-04-08T05:47:43.138Z,99535.56
2023-04-08T05:50:11.342Z,99533.75
2023-04-08T05:52:38.141Z,99533.41
2023-04-08T05:55:05.995Z,99544.81
2023-04-08T05:57:32.722Z,99534.88
2023-04-08T05:59:59.456Z,99541.84
2023-04-08T06:02:26.320Z,99551.25
2023-04-08T06:04:53.154Z,99547.94
2023-04-08T06:07:19.882Z,99552.72
2023-04-08T06:09:46.571Z,99547.31
2023-04-08T06:12:13.192Z,99546.63
2023-04-08T06:14:39.854Z,99553.56
2023-04-08T06:17:06.636Z,99554.22
2023-04-08T06:19:33.578Z,99559.16
2023-04-08T06:22:00.320Z,99555.50
2023-04-08T06:24:27.871Z,99556.00
2023-04-08T06:26:54.479Z,99558.63
2023-04-08T06:29:22.048Z,99558.09
2023-04-08T06:31:49.308Z,99566.00
2023-04-08T06:34:16.294Z,99570.09
2023-04-08T06:36:42.988Z,99569.09
2023-04-08T06:39:09.714Z,99570.22
2023-04-08T06:41:36.640Z,99571.53
2023-04-08T06:44:17.331Z,99571.72
2023-04-08T06:46:44.000Z,99570.91
2023-04-08T06:49:10.690Z,99572.22
2023-04-08T06:51:37.444Z,99567.75
2023-04-08T06:54:04.166Z,99578.97
2023-04-08T06:56:30.884Z,99579.19
2023-04-08T06:58:57.472Z,99581.78
2023-04-08T07:01:25.133Z,99585.69
2023-04-08T07:03:52.436Z,99579.31
2023-04-08T07:06:19.359Z,99585.19
2023-04-08T07:08:46.449Z,99580.88
2023-04-08T07:11:13.089Z,99592.59
2023-04-08T07:13:39.770Z,99589.88
2023-04-08T07:16:07.243Z,99595.94
2023-04-08T07:18:34.100Z,99603.53
2023-04-08T07:21:01.239Z,99605.50
2023-04-08T07:23:28.165Z,99609.41
2023-04-08T07:25:54.895Z,99606.84
2023-04-08T07:28:21.570Z,99607.56
2023-04-08T07:30:48.524Z,99608.09
2023-04-08T07:33:15.958Z,99611.72
2023-04-08T07:35:42.681Z,99616.38
2023-04-08T07:38:11.632Z,99616.31
2023-04-08T07:40:38.429Z,99615.13
2023-04-08T07:43:05.117Z,99613.13
2023-04-08T07:45:31.907Z,99621.38
2023-04-08T07:47:58.889Z,99622.09
2023-04-08T07:50:28.532Z,99617.91
2023-04-08T07:52:57.031Z,99623.75
2023-04-08T07:55:23.777Z,99618.00
2023-04-08T07:57:50.611Z,99622.81
2023-04-08T08:00:21.719Z,99630.34
2023-04-08T08:02:49.086Z,99635.22
2023-04-08T08:05:16.206Z,99640.72
2023-04-08T08:07:43.113Z,99637.34
2023-04-08T08:10:11.076Z,99630.09
2023-04-08T08:12:38.004Z,99638.84
2023-04-08T08:15:05.003Z,99648.19
2023-04-08T08:17:33.962Z,99648.94
2023-04-08T08:20:02.923Z,99644.63
2023-04-08T08:22:29.536Z,99645.41
2023-04-08T08:24:57.791Z,99643.16
2023-04-08T08:27:24.546Z,99647.41
2023-04-08T08:29:52.835Z,99654.31
2023-04-08T08:32:19.624Z,99653.94
2023-04-08T08:34:46.282Z,99662.78
2023-04-08T08:37:13.001Z,99666.50
2023-04-08T08:39:39.667Z,99661.91
2023-04-08T08:42:06.354Z,99666.50
2023-04-08T08:44:33.289Z,99661.97
2023-04-08T08:47:00.692Z,99665.75
2023-04-08T08:49:27.664Z,99672.19
2023-04-08T08:51:55.304Z,99670.44
2023-04-08T08:54:22.315Z,99677.16
2023-04-08T08:56:49.076Z,99679.16
2023-04-08T08:59:15.782Z,99681.25
2023-04-08T09:01:42.607Z,99681.28
2023-04-08T09:04:29.939Z,99690.88
2023-04-08T09:07:17.001Z,99682.97
2023-04-08T09:09:51.225Z,99696.47
2023-04-08T09:12:28.589Z,99694.06
2023-04-08T09:15:06.189Z,99705.84
2023-04-08T09:17:37.877Z,99706.41
2023-04-08T09:20:15.308Z,99715.13
2023-04-08T09:22:54.310Z,99713.13
2023-04-08T09:25:32.927Z,99720.75
2023-04-08T09:28:00.465Z,99722.28
2023-04-08T09:30:28.147Z,99725.09
2023-04-08T09:32:57.262Z,99724.59
2023-04-08T09:35:24.988Z,99727.59
2023-04-08T09:37:51.816Z,99728.69
2023-04-08T09:40:18.750Z,99731.66
2023-04-08T09:42:52.142Z,99736.94
2023-04-08T09:45:19.035Z,99734.94
2023-04-08T09:47:58.838Z,99730.91
2023-04-08T09:50:28.698Z,99727.13
2023-04-08T09:53:22.079Z,99734.22
2023-04-08T09:55:52.012Z,99728.34
2023-04-08T09:58:39.181Z,99740.25
2023-04-08T10:01:06.925Z,99728.41
2023-04-08T10:03:55.086Z,99735.94
2023-04-08T10:06:22.538Z,99728.88
2023-04-08T10:08:49.237Z,99737.84
2023-04-08T10:11:16.646Z,99740.41
2023-04-08T10:13:43.554Z,99734.09
2023-04-08T10:16:25.993Z,99740.06
2023-04-08T10:18:56.199Z,99736.84
2023-04-08T10:21:36.415Z,99736.03
2023-04-08T10:24:06.820Z,99737.41
2023-04-08T10:26:44.764Z,99743.06
2023-04-08T10:29:17.616Z,99743.91
2023-04-08T10:31:48.467Z,99745.91
2023-04-08T10:34:22.916Z,99746.66
2023-04-08T10:36:49.969Z,99742.88
2023-04-08T10:39:17.090Z,99749.69
2023-04-08T10:41:48.016Z,99743.63
2023-04-08T10:44:18.503Z,99746.84
2023-04-08T10:46:46.785Z,99746.41
2023-04-08T10:49:17.452Z,99754.75
2023-04-08T10:51:44.772Z,99752.88
2023-04-08T10:54:14.320Z,99760.22
2023-04-08T10:56:51.345Z,99751.53
2023-04-08T10:59:28.181Z,99752.88
2023-04-08T11:01:55.545Z,99751.97
2023-04-08T11:04:23.705Z,99760.31
2023-04-08T11:06:51.435Z,99750.22
2023-04-08T11:09:18.239Z,99752.81
2023-04-08T11:11:45.928Z,99754.72
2023-04-08T11:14:13.380Z,99759.47
2023-04-08T11:16:40.793Z,99756.19
2023-04-08T11:19:07.980Z,99761.56
2023-04-08T11:21:38.693Z,99764.31
2023-04-08T11:24:16.631Z,99769.44
2023-04-08T11:26:43.634Z,99759.75
2023-04-08T11:29:14.183Z,99767.66
2023-04-08T11:31:42.666Z,99769.66
2023-04-08T11:34:09.595Z,99770.66
2023-04-08T11:36:37.075Z,99766.91
2023-04-08T11:39:08.379Z,99769.06
2023-04-08T11:41:39.627Z,99772.66
2023-04-08T11:44:07.242Z,99769.94
2023-04-08T11:46:37.911Z,99775.97
2023-04-08T11:49:09.000Z,99775.69
2023-04-08T11:51:54.141Z,99786.53
2023-04-08T11:54:28.997Z,99771.41
2023-04-08T11:56:58.469Z,99774.50
2023-04-08T11:59:27.296Z,99776.59
2023-04-08T12:01:55.658Z,99778.72
2023-04-08T12:04:22.450Z,99770.56
2023-04-08T12:06:49.787Z,99767.09
2023-04-08T12:09:16.589Z,99766.28
2023-04-08T12:11:43.246Z,99770.88
2023-04-08T12:14:10.054Z,99771.03
2023-04-08T12:16:37.028Z,99770.50
2023-04-08T12:19:03.743Z,99776.47
2023-04-08T12:21:30.519Z,99773.59
2023-04-08T12:23:57.280Z,99773.56
2023-04-08T12:26:24.433Z,99771.50
2023-04-08T12:28:52.216Z,99771.56
2023-04-08T12:31:18.889Z,99773.94
2023-04-08T12:33:45.543Z,99770.88
2023-04-08T12:36:13.762Z,99766.25
2023-04-08T12:38:40.559Z,99773.16
2023-04-08T12:41:07.788Z,99767.72
2023-04-08T12:43:37.612Z,99769.78
2023-04-08T12:46:04.299Z,99770.38
2023-04-08T12:48:31.283Z,99770.25
2023-04-08T12:50:58.938Z,99774.06
2023-04-08T12:53:25.624Z,99775.13
2023-04-08T12:55:55.398Z,99772.28
2023-04-08T12:58:22.591Z,99779.41
2023-04-08T13:00:49.756Z,99776.22
2023-04-08T13:03:17.993Z,99779.34
2023-04-08T13:05:44.937Z,99778.94
2023-04-08T13:08:12.399Z,99779.16
2023-04-08T13:10:39.023Z,99773.75
2023-04-08T13:13:05.689Z,99771.72
2023-04-08T13:15:32.382Z,99777.88
2023-04-08T13:18:02.132Z,99770.53
2023-04-08T13:20:28.840Z,99778.47
2023-04-08T13:22:55.706Z,99771.03
2023-04-08T13:25:22.428Z,99780.44
2023-04-08T13:27:49.108Z,99775.22
2023-04-08T13:30:15.798Z,99779.06
2023-04-08T13:32:42.525Z,99772.88
2023-04-08T13:35:09.403Z,99783.00
2023-04-08T13:37:36.175Z,99788.69
2023-04-08T13:40:03.485Z,99792.31
2023-04-08T13:42:33.049Z,99784.47
2023-04-08T13:44:59.778Z,99784.13
2023-04-08T13:47:27.226Z,99784.63
2023-04-08T13:49:54.070Z,99781.41
2023-04-08T13:52:20.977Z,99776.03
2023-04-08T13:54:47.947Z,99783.59
2023-04-08T13:57:14.590Z,99777.16
2023-04-08T13:59:43.274Z,99775.38
2023-04-08T14:02:11.429Z,99778.63
2023-04-08T14:04:38.220Z,99784.09
2023-04-08T14:07:04.936Z,99783.34
2023-04-08T14:09:31.694Z,99784.03
2023-04-08T14:11:58.971Z,99782.72
2023-04-08T14:14:25.821Z,99792.13
2023-04-08T14:16:52.549Z,99793.44
2023-04-08T14:19:21.547Z,99791.13
2023-04-08T14:21:48.272Z,99797.00
2023-04-08T14:24:15.655Z,99788.78
2023-04-08T14:26:42.518Z,99795.84
2023-04-08T14:29:09.137Z,99792.19
2023-04-08T14:31:36.527Z,99794.09
2023-04-08T14:34:03.490Z,99801.09
2023-04-08T14:36:31.455Z,99795.63
2023-04-08T14:38:58.133Z,99799.28
2023-04-08T14:41:26.523Z,99795.63
2023-04-08T14:43:53.749Z,99804.44
2023-04-08T14:46:23.345Z,99802.91
2023-04-08T14:48:50.408Z,99802.91
2023-04-08T14:51:17.292Z,99812.50
2023-04-08T14:53:43.962Z,99803.63
2023-04-08T14:56:11.346Z,99801.28
2023-04-08T14:58:38.047Z,99805.94
2023-04-08T15:01:04.970Z,99809.47
2023-04-08T15:03:31.864Z,99808.94
2023-04-08T15:05:58.969Z,99809.78
2023-04-08T15:08:26.028Z,99805.22
2023-04-08T15:10:52.650Z,99813.34
2023-04-08T15:13:19.278Z,99812.88
2023-04-08T15:15:45.955Z,99814.19
2023-04-08T15:18:12.604Z,99815.00
2023-04-08T15:20:39.346Z,99821.00
2023-04-08T15:23:06.116Z,99810.78
2023-04-08T15:25:33.031Z,99810.78
2023-04-08T15:27:59.676Z,99819.59
2023-04-08T15:30:26.506Z,99815.28
2023-04-08T15:32:54.093Z,99817.53
2023-04-08T15:35:21.772Z,99827.00
2023-04-08T15:37:48.384Z,99820.28
2023-04-08T15:40:15.174Z,99824.16
2023-04-08T15:42:42.568Z,99828.84
2023-04-08T15:45:09.744Z,99830.16
2023-04-08T15:47:36.725Z,99825.78
2023-04-08T15:50:03.546Z,99834.75
2023-04-08T15:52:30.269Z,99840.69
2023-04-08T15:54:57.813Z,99838.81
2023-04-08T15:57:26.718Z,99839.75
2023-04-08T15:59:56.270Z,99841.53
2023-04-08T16:02:23.124Z,99838.03
2023-04-08T16:04:49.971Z,99846.34
2023-04-08T16:07:16.782Z,99845.72
2023-04-08T16:09:43.648Z,99846.66
2023-04-08T16:12:10.797Z,99852.72
2023-04-08T16:14:37.458Z,99854.56
2023-04-08T16:17:04.836Z,99845.69
2023-04-08T16:19:32.382Z,99849.72
2023-04-08T16:21:59.010Z,99848.16
2023-04-08T16:24:25.623Z,99855.22
2023-04-08T16:26:52.543Z,99858.72
2023-04-08T16:29:19.362Z,99860.03
2023-04-08T16:31:48.787Z,99873.97
2023-04-08T16:34:16.975Z,99864.06
2023-04-08T16:36:43.800Z,99873.88
2023-04-08T16:39:10.468Z,99868.59
2023-04-08T16:41:37.136Z,99875.94
2023-04-08T16:44:03.778Z,99873.81
2023-04-08T16:46:30.407Z,99877.50
2023-04-08T16:48:57.064Z,99877.50
2023-04-08T16:51:23.737Z,99880.25
2023-04-08T16:53:50.785Z,99878.31
2023-04-08T16:56:18.915Z,99874.94
2023-04-08T16:58:47.319Z,99882.81
2023-04-08T17:01:16.822Z,99888.50
2023-04-08T17:03:43.648Z,99887.56
2023-04-08T17:06:14.668Z,99885.13
2023-04-08T17:08:44.418Z,99890.44
2023-04-08T17:11:13.160Z,99894.47
2023-04-08T17:13:41.440Z,99895.47
2023-04-08T17:16:14.987Z,99893.78
2023-04-08T17:18:42.532Z,99905.19
2023-04-08T17:21:09.284Z,99908.78
2023-04-08T17:23:36.473Z,99898.00
2023-04-08T17:26:07.620Z,99911.56
2023-04-08T17:28:34.695Z,99914.13
2023-04-08T17:31:01.560Z,99915.50
2023-04-08T17:33:28.440Z,99913.66
2023-04-08T17:35:55.604Z,99910.19
2023-04-08T17:38:22.284Z,99913.94
2023-04-08T17:40:48.995Z,99917.25
2023-04-08T17:43:15.648Z,99930.63
2023-04-08T17:45:42.286Z,99929.25
2023-04-08T17:48:09.948Z,99933.91
2023-04-08T17:50:36.735Z,99934.72
2023-04-08T17:53:04.166Z,99930.13
2023-04-08T17:55:30.964Z,99937.94
2023-04-08T17:57:57.584Z,99939.84
2023-04-08T18:00:24.816Z,99934.59
2023-04-08T18:02:52.966Z,99937.19
2023-04-08T18:05:20.271Z,99935.59
2023-04-08T18:07:48.220Z,99940.22
2023-04-08T18:10:15.116Z,99953.66
2023-04-08T18:12:41.775Z,99955.63
2023-04-08T18:15:09.035Z,99946.22
2023-04-08T18:17:35.806Z,99960.34
2023-04-08T18:20:02.499Z,99958.16
2023-04-08T18:22:29.123Z,99964.75
2023-04-08T18:24:55.841Z,99965.59
2023-04-08T18:27:22.531Z,99971.59
2023-04-08T18:29:49.202Z,99975.56
2023-04-08T18:32:16.206Z,99973.78
2023-04-08T18:34:42.827Z,99976.38
2023-04-08T18:37:11.030Z,99976.91
2023-04-08T18:39:41.113Z,99985.44
2023-04-08T18:42:08.208Z,99982.47
2023-04-08T18:44:34.871Z,99989.44
2023-04-08T18:47:01.785Z,99980.53
2023-04-08T18:49:30.231Z,99985.50
2023-04-08T18:52:02.640Z,99993.59
2023-04-08T18:54:30.229Z,99985.97
2023-04-08T18:56:56.932Z,99995.28
2023-04-08T18:59:23.781Z,99991.16
2023-04-08T19:01:50.923Z,99995.28
2023-04-08T19:04:18.294Z,99989.34
2023-04-08T19:06:47.523Z,99999.13
2023-04-08T19:09:14.452Z,99990.66
2023-04-08T19:11:41.192Z,100001.78
2023-04-08T19:14:07.941Z,100002.63
2023-04-08T19:16:34.951Z,99985.84
2023-04-08T19:19:02.921Z,99992.63
2023-04-08T19:21:31.246Z,99991.63
2023-04-08T19:23:57.973Z,99995.94
2023-04-08T19:26:24.615Z,99995.94
2023-04-08T19:28:51.265Z,100002.91
2023-04-08T19:31:18.946Z,99998.59
2023-04-08T19:33:45.924Z,100002.09
2023-04-08T19:36:13.042Z,99992.63
2023-04-08T19:38:39.676Z,99994.75
2023-04-08T19:41:06.402Z,99997.03
2023-04-08T19:43:35.549Z,99991.47
2023-04-08T19:46:02.537Z,99988.81
2023-04-08T19:48:29.329Z,99989.16
2023-04-08T19:50:56.372Z,99987.84
2023-04-08T19:53:25.333Z,99984.72
2023-04-08T19:56:02.218Z,99989.97
2023-04-08T19:58:28.980Z,99983.00
2023-04-08T20:00:55.810Z,99980.53
2023-04-08T20:03:23.034Z,99976.84
2023-04-08T20:05:49.991Z,99985.56
2023-04-08T20:08:16.665Z,99987.22
2023-04-08T20:10:43.268Z,99980.25
2023-04-08T20:13:09.927Z,99990.13
2023-04-08T20:15:36.997Z,99988.69
2023-04-08T20:18:03.659Z,99988.69
2023-04-08T20:20:30.586Z,99985.03
2023-04-08T20:22:57.220Z,99986.03
2023-04-08T20:25:23.915Z,99984.81
2023-04-08T20:27:50.590Z,99986.19
2023-04-08T20:30:17.372Z,99979.03
2023-04-08T20:32:44.298Z,99978.22
2023-04-08T20:35:11.794Z,99980.94
2023-04-08T20:37:38.592Z,99983.22
2023-04-08T20:40:06.250Z,99989.69
2023-04-08T20:42:32.882Z,99983.06
2023-04-08T20:45:00.428Z,99980.03
2023-04-08T20:47:27.155Z,99979.88
2023-04-08T20:49:54.784Z,99990.19
2023-04-08T20:52:21.522Z,99984.91
2023-04-08T20:54:48.158Z,99984.91
2023-04-08T20:57:14.750Z,99987.53
2023-04-08T20:59:41.470Z,99990.34
2023-04-08T21:02:08.404Z,99989.03
2023-04-08T21:04:35.886Z,99992.03
2023-04-08T21:07:02.514Z,99996.19
2023-04-08T21:09:29.173Z,99988.38
2023-04-08T21:11:56.406Z,99993.53
2023-04-08T21:14:23.060Z,99992.34
2023-04-08T21:16:49.734Z,99993.31
2023-04-08T21:19:16.388Z,99995.00
2023-04-08T21:21:45.456Z,99988.50
2023-04-08T21:24:12.073Z,99989.88
2023-04-08T21:26:38.769Z,99990.03
2023-04-08T21:29:05.460Z,99991.50
2023-04-08T21:31:32.725Z,99996.19
2023-04-08T21:33:59.391Z,99992.38
2023-04-08T21:36:29.160Z,99992.56
2023-04-08T21:38:57.108Z,99992.91
2023-04-08T21:41:24.385Z,99983.13
2023-04-08T21:43:51.069Z,99985.78
2023-04-08T21:46:17.967Z,99978.66
2023-04-08T21:48:44.716Z,99986.78
2023-04-08T21:51:16.441Z,99974.69
2023-04-08T21:53:43.626Z,99984.13
2023-04-08T21:56:10.872Z,99980.78
2023-04-08T21:58:37.542Z,99987.91
2023-04-08T22:01:04.482Z,99982.94
2023-04-08T22:03:31.222Z,99986.63
2023-04-08T22:05:57.862Z,99982.66
2023-04-08T22:08:24.656Z,99983.97
2023-04-08T22:10:51.863Z,99982.94
2023-04-08T22:13:20.593Z,99977.44
2023-04-08T22:15:47.221Z,99971.84
2023-04-08T22:18:13.918Z,99982.59
2023-04-08T22:20:40.549Z,99976.31
2023-04-08T22:23:07.210Z,99973.66
2023-04-08T22:25:33.838Z,99978.66
2023-04-08T22:28:00.523Z,99978.13
2023-04-08T22:30:27.160Z,99978.66
2023-04-08T22:32:53.885Z,99970.31
2023-04-08T22:35:20.583Z,99971.31
2023-04-08T22:37:47.236Z,99976.47
2023-04-08T22:40:14.003Z,99964.16
2023-04-08T22:42:40.761Z,99970.16
2023-04-08T22:45:07.519Z,99975.47
2023-04-08T22:47:34.257Z,99968.66
2023-04-08T22:50:01.057Z,99969.00
2023-04-08T22:52:27.689Z,99976.97
2023-04-08T22:54:54.392Z,99970.69
2023-04-08T22:57:23.628Z,99967.19
2023-04-08T22:59:50.483Z,99967.81
2023-04-08T23:02:17.282Z,99972.59
2023-04-08T23:04:44.091Z,99965.00
2023-04-08T23:07:10.737Z,99973.44
2023-04-08T23:09:37.822Z,99973.63
2023-04-08T23:12:04.511Z,99972.31
2023-04-08T23:14:31.172Z,99973.81
2023-04-08T23:17:00.141Z,99969.31
2023-04-08T23:19:28.968Z,99967.28
2023-04-08T23:21:55.700Z,99966.81
2023-04-08T23:24:22.303Z,99970.97
2023-04-08T23:26:48.977Z,99964.00
2023-04-08T23:29:15.773Z,99975.25
2023-04-08T23:31:42.655Z,99973.28
2023-04-08T23:34:09.583Z,99966.97
2023-04-08T23:36:36.258Z,99964.63
2023-04-08T23:39:02.944Z,99970.63
2023-04-08T23:41:29.639Z,99968.13
2023-04-08T23:43:56.334Z,99964.47
2023-04-08T23:46:23.261Z,99967.97
2023-04-08T23:48:50.170Z,99969.56
2023-04-08T23:51:17.082Z,99965.13
2023-04-08T23:53:43.835Z,99966.53
2023-04-08T23:56:10.538Z,99968.25
2023-04-08T23:58:37.178Z,99960.00
